sensor_id;sensor_type;location;lat;lon;timestamp;pressure;altitude;pressure_sealevel;temperature;humidity
818;BME280;391;51.052;6.954;2022-12-18T00:00:11;102213.25;;;-3.54;82.04
818;BME280;391;51.052;6.954;2022-12-18T00:02:19;102210.78;;;-3.61;81.57
818;BME280;391;51.052;6.954;2022-12-18T00:04:25;102208.38;;;-3.60;81.21
818;BME280;391;51.052;6.954;2022-12-18T00:06:29;102204.72;;;-3.70;81.32
818;BME280;391;51.052;6.954;2022-12-18T00:08:34;102204.84;;;-3.69;81.77
818;BME280;391;51.052;6.954;2022-12-18T00:10:39;102201.81;;;-3.73;81.66
818;BME280;391;51.052;6.954;2022-12-18T00:12:42;102206.16;;;-3.72;81.70
818;BME280;391;51.052;6.954;2022-12-18T00:14:46;102211.25;;;-3.72;81.54
818;BME280;391;51.052;6.954;2022-12-18T00:16:49;102207.97;;;-3.71;81.61
818;BME280;391;51.052;6.954;2022-12-18T00:18:54;102183.63;;;-3.92;81.68
818;BME280;391;51.052;6.954;2022-12-18T00:21:01;102218.00;;;-3.73;81.43
818;BME280;391;51.052;6.954;2022-12-18T00:23:05;102220.72;;;-3.71;81.34
818;BME280;391;51.052;6.954;2022-12-18T00:25:09;102219.34;;;-3.77;81.33
818;BME280;391;51.052;6.954;2022-12-18T00:27:14;102226.22;;;-3.76;81.51
818;BME280;391;51.052;6.954;2022-12-18T00:29:17;102228.59;;;-3.77;81.50
818;BME280;391;51.052;6.954;2022-12-18T00:31:22;102215.69;;;-3.79;81.47
818;BME280;391;51.052;6.954;2022-12-18T00:33:28;102222.59;;;-3.78;81.67
818;BME280;391;51.052;6.954;2022-12-18T00:35:31;102220.97;;;-3.77;81.47
818;BME280;391;51.052;6.954;2022-12-18T00:37:34;102223.53;;;-3.77;82.00
818;BME280;391;51.052;6.954;2022-12-18T00:39:39;102223.66;;;-3.76;81.37
818;BME280;391;51.052;6.954;2022-12-18T00:41:42;102223.53;;;-3.77;81.70
818;BME280;391;51.052;6.954;2022-12-18T00:44:06;102225.72;;;-3.80;81.64
818;BME280;391;51.052;6.954;2022-12-18T00:46:10;102222.59;;;-3.78;81.49
818;BME280;391;51.052;6.954;2022-12-18T00:48:13;102219.88;;;-3.79;81.53
818;BME280;391;51.052;6.954;2022-12-18T00:50:17;102214.56;;;-3.73;81.46
818;BME280;391;51.052;6.954;2022-12-18T00:52:20;102207.72;;;-3.66;81.32
818;BME280;391;51.052;6.954;2022-12-18T00:54:24;102201.81;;;-3.73;80.99
818;BME280;391;51.052;6.954;2022-12-18T00:56:27;102200.25;;;-3.80;81.08
818;BME280;391;51.052;6.954;2022-12-18T00:58:32;102212.75;;;-3.75;80.87
818;BME280;391;51.052;6.954;2022-12-18T01:00:40;102192.09;;;-3.85;80.82
818;BME280;391;51.052;6.954;2022-12-18T01:02:45;102209.47;;;-3.73;81.22
818;BME280;391;51.052;6.954;2022-12-18T01:04:49;102197.72;;;-3.80;80.77
818;BME280;391;51.052;6.954;2022-12-18T01:06:54;102209.94;;;-3.69;80.79
818;BME280;391;51.052;6.954;2022-12-18T01:08:57;102215.78;;;-3.70;80.67
818;BME280;391;51.052;6.954;2022-12-18T01:11:06;102213.59;;;-3.67;80.69
818;BME280;391;51.052;6.954;2022-12-18T01:13:10;102177.53;;;-3.86;80.83
818;BME280;391;51.052;6.954;2022-12-18T01:15:14;102196.16;;;-3.71;80.76
818;BME280;391;51.052;6.954;2022-12-18T01:17:21;102199.69;;;-3.62;80.75
818;BME280;391;51.052;6.954;2022-12-18T01:19:24;102199.94;;;-3.67;80.31
818;BME280;391;51.052;6.954;2022-12-18T01:21:29;102207.97;;;-3.71;80.42
818;BME280;391;51.052;6.954;2022-12-18T01:23:38;102208.97;;;-3.78;80.97
818;BME280;391;51.052;6.954;2022-12-18T01:25:42;102216.78;;;-3.77;80.66
818;BME280;391;51.052;6.954;2022-12-18T01:27:45;102218.25;;;-3.63;80.86
818;BME280;391;51.052;6.954;2022-12-18T01:29:49;102219.66;;;-3.58;80.59
818;BME280;391;51.052;6.954;2022-12-18T01:31:55;102220.06;;;-3.62;80.42
818;BME280;391;51.052;6.954;2022-12-18T01:34:01;102192.28;;;-3.67;80.20
818;BME280;391;51.052;6.954;2022-12-18T01:36:05;102208.25;;;-3.61;80.30
818;BME280;391;51.052;6.954;2022-12-18T01:38:09;102210.59;;;-3.63;80.33
818;BME280;391;51.052;6.954;2022-12-18T01:40:12;102206.03;;;-3.58;80.45
818;BME280;391;51.052;6.954;2022-12-18T01:42:16;102209.88;;;-3.62;80.30
818;BME280;391;51.052;6.954;2022-12-18T01:44:56;102213.25;;;-3.54;80.52
818;BME280;391;51.052;6.954;2022-12-18T01:47:00;102211.03;;;-3.51;79.79
818;BME280;391;51.052;6.954;2022-12-18T01:49:04;102208.50;;;-3.51;80.20
818;BME280;391;51.052;6.954;2022-12-18T01:51:10;102204.97;;;-3.45;79.79
818;BME280;391;51.052;6.954;2022-12-18T01:53:17;102205.78;;;-3.53;79.86
818;BME280;391;51.052;6.954;2022-12-18T01:55:23;102144.34;;;-3.94;79.83
818;BME280;391;51.052;6.954;2022-12-18T01:57:28;102197.97;;;-3.54;80.18
818;BME280;391;51.052;6.954;2022-12-18T01:59:33;102200.59;;;-3.61;80.03
818;BME280;391;51.052;6.954;2022-12-18T02:01:38;102198.44;;;-3.65;80.02
818;BME280;391;51.052;6.954;2022-12-18T02:03:43;102184.88;;;-3.73;80.26
818;BME280;391;51.052;6.954;2022-12-18T02:05:54;102200.59;;;-3.61;80.06
818;BME280;391;51.052;6.954;2022-12-18T02:08:08;102213.81;;;-3.57;80.20
818;BME280;391;51.052;6.954;2022-12-18T02:10:17;102210.78;;;-3.61;79.89
818;BME280;391;51.052;6.954;2022-12-18T02:12:24;102208.06;;;-3.63;80.35
818;BME280;391;51.052;6.954;2022-12-18T02:14:34;102202.63;;;-3.66;80.41
818;BME280;391;51.052;6.954;2022-12-18T02:16:45;102204.13;;;-3.68;80.55
818;BME280;391;51.052;6.954;2022-12-18T02:18:56;102199.75;;;-3.69;80.76
818;BME280;391;51.052;6.954;2022-12-18T02:21:10;102202.97;;;-3.63;80.46
818;BME280;391;51.052;6.954;2022-12-18T02:23:27;102197.53;;;-3.66;80.68
818;BME280;391;51.052;6.954;2022-12-18T02:28:13;102201.72;;;-3.66;81.02
818;BME280;391;51.052;6.954;2022-12-18T02:30:19;102206.94;;;-3.73;80.48
818;BME280;391;51.052;6.954;2022-12-18T02:32:26;102203.22;;;-3.68;81.04
818;BME280;391;51.052;6.954;2022-12-18T02:34:34;102205.69;;;-3.61;80.69
818;BME280;391;51.052;6.954;2022-12-18T02:36:45;102202.38;;;-3.60;80.69
818;BME280;391;51.052;6.954;2022-12-18T02:38:50;102191.72;;;-3.65;80.60
818;BME280;391;51.052;6.954;2022-12-18T02:40:56;102188.91;;;-3.59;80.66
818;BME280;391;51.052;6.954;2022-12-18T02:43:07;102186.53;;;-3.58;80.40
818;BME280;391;51.052;6.954;2022-12-18T02:45:13;102186.69;;;-3.56;80.45
818;BME280;391;51.052;6.954;2022-12-18T02:47:21;102176.91;;;-3.60;80.26
818;BME280;391;51.052;6.954;2022-12-18T02:49:31;102171.00;;;-3.68;80.17
818;BME280;391;51.052;6.954;2022-12-18T02:51:46;102171.41;;;-3.72;80.11
818;BME280;391;51.052;6.954;2022-12-18T02:53:55;102176.16;;;-3.75;80.26
818;BME280;391;51.052;6.954;2022-12-18T02:56:04;102178.25;;;-3.64;80.91
818;BME280;391;51.052;6.954;2022-12-18T02:58:15;102191.06;;;-3.71;80.18
818;BME280;391;51.052;6.954;2022-12-18T03:00:29;102193.09;;;-3.76;80.20
818;BME280;391;51.052;6.954;2022-12-18T03:02:39;102193.84;;;-3.77;80.50
818;BME280;391;51.052;6.954;2022-12-18T03:04:54;102195.50;;;-3.77;80.55
818;BME280;391;51.052;6.954;2022-12-18T03:07:03;102185.78;;;-3.88;80.56
818;BME280;391;51.052;6.954;2022-12-18T03:09:12;102184.13;;;-3.88;80.79
818;BME280;391;51.052;6.954;2022-12-18T03:11:17;102179.22;;;-3.86;80.76
818;BME280;391;51.052;6.954;2022-12-18T03:13:44;102176.81;;;-3.85;80.49
818;BME280;391;51.052;6.954;2022-12-18T03:15:52;102172.03;;;-3.97;80.74
818;BME280;391;51.052;6.954;2022-12-18T03:18:01;102175.25;;;-3.91;81.17
818;BME280;391;51.052;6.954;2022-12-18T03:20:09;102177.22;;;-3.89;80.93
818;BME280;391;51.052;6.954;2022-12-18T03:22:15;102171.78;;;-3.92;80.75
818;BME280;391;51.052;6.954;2022-12-18T03:24:26;102168.00;;;-3.95;81.07
818;BME280;391;51.052;6.954;2022-12-18T03:26:31;102169.44;;;-3.90;80.98
818;BME280;391;51.052;6.954;2022-12-18T03:28:39;102165.78;;;-3.92;80.56
818;BME280;391;51.052;6.954;2022-12-18T03:30:46;102166.56;;;-3.93;80.70
818;BME280;391;51.052;6.954;2022-12-18T03:32:56;102155.59;;;-3.92;81.23
818;BME280;391;51.052;6.954;2022-12-18T03:35:05;102148.88;;;-3.92;80.86
818;BME280;391;51.052;6.954;2022-12-18T03:37:12;102150.59;;;-3.99;81.15
818;BME280;391;51.052;6.954;2022-12-18T03:39:16;102036.16;;;-4.60;80.91
818;BME280;391;51.052;6.954;2022-12-18T03:41:30;102156.38;;;-3.93;81.18
818;BME280;391;51.052;6.954;2022-12-18T03:43:55;102160.88;;;-3.91;81.00
818;BME280;391;51.052;6.954;2022-12-18T03:46:07;102150.75;;;-3.98;81.45
818;BME280;391;51.052;6.954;2022-12-18T03:48:17;102153.38;;;-3.89;81.07
818;BME280;391;51.052;6.954;2022-12-18T03:50:29;102165.78;;;-3.92;81.27
818;BME280;391;51.052;6.954;2022-12-18T03:52:41;102158.00;;;-3.94;81.25
818;BME280;391;51.052;6.954;2022-12-18T03:54:46;102164.75;;;-3.79;80.85
818;BME280;391;51.052;6.954;2022-12-18T03:56:57;102164.25;;;-3.83;80.64
818;BME280;391;51.052;6.954;2022-12-18T03:59:04;102150.28;;;-3.87;80.79
818;BME280;391;51.052;6.954;2022-12-18T04:01:11;102145.53;;;-3.84;80.65
818;BME280;391;51.052;6.954;2022-12-18T04:03:19;102132.19;;;-3.97;81.42
818;BME280;391;51.052;6.954;2022-12-18T04:05:29;102074.69;;;-4.26;81.31
818;BME280;391;51.052;6.954;2022-12-18T04:07:33;102143.38;;;-3.88;81.32
818;BME280;391;51.052;6.954;2022-12-18T04:09:39;102141.34;;;-3.83;81.28
818;BME280;391;51.052;6.954;2022-12-18T04:11:45;102142.47;;;-3.88;81.07
818;BME280;391;51.052;6.954;2022-12-18T04:13:55;102135.47;;;-3.82;81.10
818;BME280;391;51.052;6.954;2022-12-18T04:15:58;102136.56;;;-3.80;80.90
818;BME280;391;51.052;6.954;2022-12-18T04:18:03;102125.38;;;-3.89;80.94
818;BME280;391;51.052;6.954;2022-12-18T04:20:16;102134.44;;;-3.84;81.07
818;BME280;391;51.052;6.954;2022-12-18T04:22:20;102136.78;;;-3.86;80.89
818;BME280;391;51.052;6.954;2022-12-18T04:24:29;102139.94;;;-3.88;80.90
818;BME280;391;51.052;6.954;2022-12-18T04:26:45;102133.91;;;-3.89;81.20
818;BME280;391;51.052;6.954;2022-12-18T04:28:52;102143.78;;;-3.92;81.34
818;BME280;391;51.052;6.954;2022-12-18T04:30:56;102142.97;;;-3.84;81.40
818;BME280;391;51.052;6.954;2022-12-18T04:32:59;102137.31;;;-3.81;81.36
818;BME280;391;51.052;6.954;2022-12-18T04:35:05;102139.44;;;-3.77;81.10
818;BME280;391;51.052;6.954;2022-12-18T04:37:16;102142.66;;;-3.87;81.05
818;BME280;391;51.052;6.954;2022-12-18T04:39:22;102143.03;;;-3.91;80.98
818;BME280;391;51.052;6.954;2022-12-18T04:41:28;102147.75;;;-3.87;81.08
818;BME280;391;51.052;6.954;2022-12-18T04:43:33;102147.31;;;-3.83;80.88
818;BME280;391;51.052;6.954;2022-12-18T04:45:36;102144.94;;;-3.81;80.41
818;BME280;391;51.052;6.954;2022-12-18T04:47:39;102139.59;;;-3.91;80.22
818;BME280;391;51.052;6.954;2022-12-18T04:49:45;102151.41;;;-3.92;80.63
818;BME280;391;51.052;6.954;2022-12-18T04:51:48;102145.75;;;-3.89;80.32
818;BME280;391;51.052;6.954;2022-12-18T04:53:53;102141.16;;;-4.00;80.42
818;BME280;391;51.052;6.954;2022-12-18T04:56:07;102138.09;;;-4.05;80.77
818;BME280;391;51.052;6.954;2022-12-18T04:58:11;102134.16;;;-4.10;80.91
818;BME280;391;51.052;6.954;2022-12-18T05:00:15;102127.81;;;-4.13;80.97
818;BME280;391;51.052;6.954;2022-12-18T05:02:18;102135.78;;;-4.26;81.01
818;BME280;391;51.052;6.954;2022-12-18T05:04:22;102124.69;;;-4.27;81.51
818;BME280;391;51.052;6.954;2022-12-18T05:06:25;102127.41;;;-4.25;81.11
818;BME280;391;51.052;6.954;2022-12-18T05:08:29;102131.41;;;-4.27;81.90
818;BME280;391;51.052;6.954;2022-12-18T05:10:33;102128.66;;;-4.21;82.51
818;BME280;391;51.052;6.954;2022-12-18T05:12:39;102119.84;;;-4.16;82.41
818;BME280;391;51.052;6.954;2022-12-18T05:14:56;102112.56;;;-4.13;82.31
818;BME280;391;51.052;6.954;2022-12-18T05:17:00;102119.84;;;-4.16;82.79
818;BME280;391;51.052;6.954;2022-12-18T05:19:03;102123.47;;;-4.14;82.72
818;BME280;391;51.052;6.954;2022-12-18T05:21:07;102126.34;;;-4.11;83.02
818;BME280;391;51.052;6.954;2022-12-18T05:23:10;102131.38;;;-4.04;82.52
818;BME280;391;51.052;6.954;2022-12-18T05:25:14;102126.84;;;-4.07;82.49
818;BME280;391;51.052;6.954;2022-12-18T05:27:19;102118.56;;;-4.13;82.56
818;BME280;391;51.052;6.954;2022-12-18T05:29:22;102114.31;;;-4.05;82.55
818;BME280;391;51.052;6.954;2022-12-18T05:31:26;102117.31;;;-4.16;82.16
818;BME280;391;51.052;6.954;2022-12-18T05:33:31;102109.84;;;-4.15;82.48
818;BME280;391;51.052;6.954;2022-12-18T05:35:36;102121.75;;;-4.22;82.18
818;BME280;391;51.052;6.954;2022-12-18T05:37:39;102121.00;;;-4.21;82.23
818;BME280;391;51.052;6.954;2022-12-18T05:39:44;102127.88;;;-4.20;82.59
818;BME280;391;51.052;6.954;2022-12-18T05:41:48;102130.44;;;-4.20;82.27
818;BME280;391;51.052;6.954;2022-12-18T05:43:52;102133.75;;;-4.21;82.22
818;BME280;391;51.052;6.954;2022-12-18T05:45:56;102145.72;;;-4.20;82.43
818;BME280;391;51.052;6.954;2022-12-18T05:47:59;102146.22;;;-4.16;82.20
818;BME280;391;51.052;6.954;2022-12-18T05:50:04;102148.91;;;-4.14;82.53
818;BME280;391;51.052;6.954;2022-12-18T05:52:07;102135.84;;;-4.17;82.16
818;BME280;391;51.052;6.954;2022-12-18T05:54:11;102146.94;;;-4.17;82.77
818;BME280;391;51.052;6.954;2022-12-18T05:56:16;102146.16;;;-4.09;82.61
818;BME280;391;51.052;6.954;2022-12-18T05:58:19;102148.28;;;-4.05;82.49
818;BME280;391;51.052;6.954;2022-12-18T06:00:24;102151.41;;;-4.07;82.67
818;BME280;391;51.052;6.954;2022-12-18T06:02:28;102161.78;;;-4.06;82.49
818;BME280;391;51.052;6.954;2022-12-18T06:04:31;102170.66;;;-4.02;82.56
818;BME280;391;51.052;6.954;2022-12-18T06:06:34;102173.84;;;-3.96;82.40
818;BME280;391;51.052;6.954;2022-12-18T06:08:38;102150.50;;;-4.08;81.83
818;BME280;391;51.052;6.954;2022-12-18T06:10:50;102147.78;;;-4.09;82.22
818;BME280;391;51.052;6.954;2022-12-18T06:12:54;102172.34;;;-4.10;82.23
818;BME280;391;51.052;6.954;2022-12-18T06:14:57;102171.69;;;-4.16;82.40
818;BME280;391;51.052;6.954;2022-12-18T06:17:02;102175.13;;;-4.15;82.04
818;BME280;391;51.052;6.954;2022-12-18T06:19:05;102186.97;;;-4.16;82.47
818;BME280;391;51.052;6.954;2022-12-18T06:21:09;102186.22;;;-4.15;82.39
818;BME280;391;51.052;6.954;2022-12-18T06:23:12;102186.06;;;-4.16;82.54
818;BME280;391;51.052;6.954;2022-12-18T06:25:16;102194.59;;;-4.16;82.53
818;BME280;391;51.052;6.954;2022-12-18T06:27:19;102194.94;;;-4.13;82.27
818;BME280;391;51.052;6.954;2022-12-18T06:29:23;102196.31;;;-4.08;82.03
818;BME280;391;51.052;6.954;2022-12-18T06:31:26;102192.06;;;-4.16;82.32
818;BME280;391;51.052;6.954;2022-12-18T06:33:32;102188.25;;;-4.19;82.13
818;BME280;391;51.052;6.954;2022-12-18T06:35:35;102185.78;;;-4.27;82.69
818;BME280;391;51.052;6.954;2022-12-18T06:37:38;102187.75;;;-4.24;82.66
818;BME280;391;51.052;6.954;2022-12-18T06:39:42;102177.16;;;-4.20;82.56
818;BME280;391;51.052;6.954;2022-12-18T06:41:45;102174.28;;;-4.23;82.79
818;BME280;391;51.052;6.954;2022-12-18T06:43:49;102172.75;;;-4.14;82.66
818;BME280;391;51.052;6.954;2022-12-18T06:45:59;102177.16;;;-4.20;82.33
818;BME280;391;51.052;6.954;2022-12-18T06:48:06;102169.72;;;-4.18;82.24
818;BME280;391;51.052;6.954;2022-12-18T06:50:11;102171.09;;;-4.13;82.14
818;BME280;391;51.052;6.954;2022-12-18T06:52:14;102158.63;;;-4.19;81.77
818;BME280;391;51.052;6.954;2022-12-18T06:54:21;102164.19;;;-4.14;82.20
818;BME280;391;51.052;6.954;2022-12-18T06:56:25;102168.47;;;-4.22;82.25
818;BME280;391;51.052;6.954;2022-12-18T06:58:28;102162.81;;;-4.19;82.28
818;BME280;391;51.052;6.954;2022-12-18T07:00:31;102161.31;;;-4.17;82.31
818;BME280;391;51.052;6.954;2022-12-18T07:02:35;102163.31;;;-4.15;82.25
818;BME280;391;51.052;6.954;2022-12-18T07:04:38;102162.31;;;-4.08;82.28
818;BME280;391;51.052;6.954;2022-12-18T07:06:43;102173.66;;;-4.13;82.33
818;BME280;391;51.052;6.954;2022-12-18T07:08:47;102160.59;;;-4.16;82.43
818;BME280;391;51.052;6.954;2022-12-18T07:10:51;102159.88;;;-4.15;82.49
818;BME280;391;51.052;6.954;2022-12-18T07:12:57;102155.56;;;-4.23;82.69
818;BME280;391;51.052;6.954;2022-12-18T07:15:01;102153.25;;;-4.29;83.04
818;BME280;391;51.052;6.954;2022-12-18T07:17:04;102162.88;;;-4.27;82.78
818;BME280;391;51.052;6.954;2022-12-18T07:19:08;102160.97;;;-4.20;82.78
818;BME280;391;51.052;6.954;2022-12-18T07:21:15;102154.97;;;-4.21;82.64
818;BME280;391;51.052;6.954;2022-12-18T07:23:20;102159.75;;;-4.24;82.62
818;BME280;391;51.052;6.954;2022-12-18T07:25:23;102157.03;;;-4.25;82.61
818;BME280;391;51.052;6.954;2022-12-18T07:27:26;102147.19;;;-4.22;82.55
818;BME280;391;51.052;6.954;2022-12-18T07:29:30;102155.88;;;-4.20;82.78
818;BME280;391;51.052;6.954;2022-12-18T07:31:34;102157.84;;;-4.18;82.85
818;BME280;391;51.052;6.954;2022-12-18T07:33:38;102137.75;;;-4.23;82.78
818;BME280;391;51.052;6.954;2022-12-18T07:35:42;102154.53;;;-4.10;82.61
818;BME280;391;51.052;6.954;2022-12-18T07:37:45;102153.81;;;-4.09;82.47
818;BME280;391;51.052;6.954;2022-12-18T07:39:50;102154.69;;;-4.08;82.53
818;BME280;391;51.052;6.954;2022-12-18T07:41:53;102150.09;;;-4.04;82.42
818;BME280;391;51.052;6.954;2022-12-18T07:44:14;102146.69;;;-4.11;82.12
818;BME280;391;51.052;6.954;2022-12-18T07:46:17;102148.19;;;-4.13;81.99
818;BME280;391;51.052;6.954;2022-12-18T07:48:21;102146.81;;;-4.18;82.38
818;BME280;391;51.052;6.954;2022-12-18T07:50:24;102141.78;;;-4.25;82.45
818;BME280;391;51.052;6.954;2022-12-18T07:52:28;102142.09;;;-4.22;82.47
818;BME280;391;51.052;6.954;2022-12-18T07:54:32;102143.34;;;-4.19;82.57
818;BME280;391;51.052;6.954;2022-12-18T07:56:36;102150.47;;;-4.23;82.13
818;BME280;391;51.052;6.954;2022-12-18T07:58:40;102156.47;;;-4.23;82.40
818;BME280;391;51.052;6.954;2022-12-18T08:00:43;102156.41;;;-4.16;82.41
818;BME280;391;51.052;6.954;2022-12-18T08:02:46;102144.91;;;-4.12;82.15
818;BME280;391;51.052;6.954;2022-12-18T08:04:50;102156.16;;;-4.10;82.21
818;BME280;391;51.052;6.954;2022-12-18T08:06:53;102137.09;;;-4.14;82.18
818;BME280;391;51.052;6.954;2022-12-18T08:08:57;102125.78;;;-4.09;82.36
818;BME280;391;51.052;6.954;2022-12-18T08:11:01;102116.09;;;-4.04;82.24
818;BME280;391;51.052;6.954;2022-12-18T08:13:06;102120.44;;;-4.03;82.23
818;BME280;391;51.052;6.954;2022-12-18T08:15:09;102127.56;;;-4.08;82.06
818;BME280;391;51.052;6.954;2022-12-18T08:17:13;102124.69;;;-4.11;81.72
818;BME280;391;51.052;6.954;2022-12-18T08:19:16;102128.00;;;-4.12;82.01
818;BME280;391;51.052;6.954;2022-12-18T08:21:21;102121.25;;;-4.11;82.04
818;BME280;391;51.052;6.954;2022-12-18T08:23:25;102117.50;;;-3.99;82.10
818;BME280;391;51.052;6.954;2022-12-18T08:25:30;102111.31;;;-4.01;81.93
818;BME280;391;51.052;6.954;2022-12-18T08:27:33;102108.31;;;-3.90;81.92
818;BME280;391;51.052;6.954;2022-12-18T08:29:38;102101.72;;;-3.88;81.83
818;BME280;391;51.052;6.954;2022-12-18T08:31:41;102093.03;;;-3.90;81.89
818;BME280;391;51.052;6.954;2022-12-18T08:33:45;102092.44;;;-3.88;81.86
818;BME280;391;51.052;6.954;2022-12-18T08:35:50;102081.84;;;-3.84;81.83
818;BME280;391;51.052;6.954;2022-12-18T08:37:54;102083.31;;;-3.86;82.00
818;BME280;391;51.052;6.954;2022-12-18T08:39:57;102086.19;;;-3.83;81.54
818;BME280;391;51.052;6.954;2022-12-18T08:42:00;102085.03;;;-3.78;81.53
818;BME280;391;51.052;6.954;2022-12-18T08:44:21;102083.41;;;-3.77;81.25
818;BME280;391;51.052;6.954;2022-12-18T08:46:44;102067.28;;;-3.85;81.49
818;BME280;391;51.052;6.954;2022-12-18T08:48:48;102093.41;;;-3.63;81.34
818;BME280;391;51.052;6.954;2022-12-18T08:50:54;102102.00;;;-3.54;81.51
818;BME280;391;51.052;6.954;2022-12-18T08:52:57;102097.72;;;-3.46;80.91
818;BME280;391;51.052;6.954;2022-12-18T08:55:01;102092.88;;;-3.36;81.02
818;BME280;391;51.052;6.954;2022-12-18T08:57:04;102078.53;;;-3.27;80.58
818;BME280;391;51.052;6.954;2022-12-18T08:59:08;102085.19;;;-3.21;81.15
818;BME280;391;51.052;6.954;2022-12-18T09:01:20;102066.41;;;-3.21;80.52
818;BME280;391;51.052;6.954;2022-12-18T09:03:26;102078.50;;;-3.03;80.40
818;BME280;391;51.052;6.954;2022-12-18T09:05:30;102085.47;;;-2.93;79.57
818;BME280;391;51.052;6.954;2022-12-18T09:07:33;102084.31;;;-2.88;79.78
818;BME280;391;51.052;6.954;2022-12-18T09:09:37;102091.09;;;-2.80;79.32
818;BME280;391;51.052;6.954;2022-12-18T09:11:40;102082.53;;;-2.81;78.88
818;BME280;391;51.052;6.954;2022-12-18T09:13:43;102086.00;;;-2.80;79.34
818;BME280;391;51.052;6.954;2022-12-18T09:15:48;102077.56;;;-2.88;79.26
818;BME280;391;51.052;6.954;2022-12-18T09:17:52;102073.69;;;-2.84;78.76
818;BME280;391;51.052;6.954;2022-12-18T09:19:57;102065.88;;;-2.86;79.37
818;BME280;391;51.052;6.954;2022-12-18T09:22:00;102075.66;;;-2.82;79.32
818;BME280;391;51.052;6.954;2022-12-18T09:24:05;102080.16;;;-2.79;79.21
818;BME280;391;51.052;6.954;2022-12-18T09:26:10;102062.13;;;-2.81;78.86
818;BME280;391;51.052;6.954;2022-12-18T09:28:15;102068.19;;;-2.72;79.15
818;BME280;391;51.052;6.954;2022-12-18T09:30:19;102071.25;;;-2.58;79.07
818;BME280;391;51.052;6.954;2022-12-18T09:32:22;102072.00;;;-2.51;78.74
818;BME280;391;51.052;6.954;2022-12-18T09:34:26;102078.22;;;-2.40;78.44
818;BME280;391;51.052;6.954;2022-12-18T09:36:30;102071.31;;;-2.33;78.20
818;BME280;391;51.052;6.954;2022-12-18T09:38:34;102065.94;;;-2.27;77.19
818;BME280;391;51.052;6.954;2022-12-18T09:40:41;102061.28;;;-2.23;77.84
818;BME280;391;51.052;6.954;2022-12-18T09:42:52;102058.75;;;-2.14;77.11
818;BME280;391;51.052;6.954;2022-12-18T09:44:58;101998.00;;;-2.42;77.00
818;BME280;391;51.052;6.954;2022-12-18T09:47:09;102047.81;;;-2.04;77.12
818;BME280;391;51.052;6.954;2022-12-18T09:49:17;101990.06;;;-2.37;76.46
818;BME280;391;51.052;6.954;2022-12-18T09:51:27;102039.81;;;-1.99;76.61
818;BME280;391;51.052;6.954;2022-12-18T09:53:35;102044.34;;;-1.96;75.94
818;BME280;391;51.052;6.954;2022-12-18T09:55:42;102045.38;;;-1.94;76.20
818;BME280;391;51.052;6.954;2022-12-18T09:57:52;102053.94;;;-1.94;76.25
818;BME280;391;51.052;6.954;2022-12-18T09:59:59;102054.84;;;-1.85;76.11
818;BME280;391;51.052;6.954;2022-12-18T10:02:17;102032.75;;;-1.93;75.82
818;BME280;391;51.052;6.954;2022-12-18T10:04:23;102039.50;;;-1.85;75.72
818;BME280;391;51.052;6.954;2022-12-18T10:06:32;102030.97;;;-1.77;75.65
818;BME280;391;51.052;6.954;2022-12-18T10:08:46;101963.19;;;-2.07;75.47
818;BME280;391;51.052;6.954;2022-12-18T10:10:53;102034.59;;;-1.66;75.13
818;BME280;391;51.052;6.954;2022-12-18T10:13:09;102030.63;;;-1.63;75.18
818;BME280;391;51.052;6.954;2022-12-18T10:15:21;102033.50;;;-1.51;75.11
818;BME280;391;51.052;6.954;2022-12-18T10:17:35;102021.16;;;-1.38;74.43
818;BME280;391;51.052;6.954;2022-12-18T10:19:45;102018.00;;;-1.44;74.67
818;BME280;391;51.052;6.954;2022-12-18T10:21:59;102014.06;;;-1.32;74.10
818;BME280;391;51.052;6.954;2022-12-18T10:24:17;102008.00;;;-1.24;73.46
818;BME280;391;51.052;6.954;2022-12-18T10:26:24;102007.22;;;-1.14;73.79
818;BME280;391;51.052;6.954;2022-12-18T10:28:29;102004.94;;;-1.02;73.52
818;BME280;391;51.052;6.954;2022-12-18T10:30:33;102002.06;;;-0.97;72.89
818;BME280;391;51.052;6.954;2022-12-18T10:32:36;102005.03;;;-0.92;72.74
818;BME280;391;51.052;6.954;2022-12-18T10:34:40;102014.47;;;-0.83;71.39
818;BME280;391;51.052;6.954;2022-12-18T10:36:43;102025.63;;;-0.74;71.37
818;BME280;391;51.052;6.954;2022-12-18T10:38:47;102018.06;;;-0.72;71.41
818;BME280;391;51.052;6.954;2022-12-18T10:40:54;102007.34;;;-0.68;70.93
818;BME280;391;51.052;6.954;2022-12-18T10:43:04;102008.84;;;-0.62;70.97
818;BME280;391;51.052;6.954;2022-12-18T10:45:10;102007.31;;;-0.60;70.36
818;BME280;391;51.052;6.954;2022-12-18T10:47:17;102008.66;;;-0.63;71.17
818;BME280;391;51.052;6.954;2022-12-18T10:49:24;102009.13;;;-0.59;71.38
818;BME280;391;51.052;6.954;2022-12-18T10:51:31;102003.53;;;-0.55;71.30
818;BME280;391;51.052;6.954;2022-12-18T10:53:36;102008.31;;;-0.49;71.08
818;BME280;391;51.052;6.954;2022-12-18T10:55:44;101997.59;;;-0.45;70.06
818;BME280;391;51.052;6.954;2022-12-18T10:57:50;101990.50;;;-0.47;69.52
818;BME280;391;51.052;6.954;2022-12-18T10:59:55;101987.66;;;-0.50;70.00
818;BME280;391;51.052;6.954;2022-12-18T11:01:59;101987.94;;;-0.47;70.34
818;BME280;391;51.052;6.954;2022-12-18T11:04:08;101965.97;;;-0.54;69.99
818;BME280;391;51.052;6.954;2022-12-18T11:06:14;101992.31;;;-0.46;70.18
818;BME280;391;51.052;6.954;2022-12-18T11:08:20;101980.81;;;-0.41;69.97
818;BME280;391;51.052;6.954;2022-12-18T11:10:28;101973.28;;;-0.40;69.70
818;BME280;391;51.052;6.954;2022-12-18T11:12:33;101980.78;;;-0.33;69.21
818;BME280;391;51.052;6.954;2022-12-18T11:14:45;101972.03;;;-0.35;69.61
818;BME280;391;51.052;6.954;2022-12-18T11:16:50;101969.00;;;-0.31;69.19
818;BME280;391;51.052;6.954;2022-12-18T11:19:21;101981.00;;;-0.21;69.87
818;BME280;391;51.052;6.954;2022-12-18T11:21:29;101974.88;;;-0.32;69.49
818;BME280;391;51.052;6.954;2022-12-18T11:23:33;101976.22;;;-0.27;68.93
818;BME280;391;51.052;6.954;2022-12-18T11:25:37;101978.78;;;-0.27;68.27
818;BME280;391;51.052;6.954;2022-12-18T11:27:47;101972.00;;;-0.26;68.32
818;BME280;391;51.052;6.954;2022-12-18T11:29:53;101974.69;;;-0.25;69.12
818;BME280;391;51.052;6.954;2022-12-18T11:32:24;101963.41;;;-0.27;68.70
818;BME280;391;51.052;6.954;2022-12-18T11:34:31;101972.00;;;-0.26;68.43
818;BME280;391;51.052;6.954;2022-12-18T11:36:39;101956.47;;;-0.28;69.03
818;BME280;391;51.052;6.954;2022-12-18T11:38:45;101957.09;;;-0.30;69.00